CFG1DR EDDF-EGKK
Flight info
| Callsign | CFG1DR |
|---|---|
| Flight time | 1h 5m |
| Altitude | 32000 |
| Route | OBOKA5G OBOKA Z29 TORNU DCT BATAK DCT GALSO Q63 ARREK Y4 TEBRA |
| Aircraft | E190/M-SDE1E2E3FGIJ1RWY/LB1 |
Departure
| Time | 2026-05-04 04:31 |
|---|---|
| Airport | Frankfurt Main Airport (EDDF) |
Arrival
| Time | 2026-05-04 05:37 |
|---|---|
| Airport | London Gatwick Airport (EGKK) |
| Time | Latitude | Longitude | Altitude | Speed | Heading |
|---|---|---|---|---|---|
| 2026-05-04 03:59 | 50.03654 | 8.53944 | 341 ft | 0 kts | 160° |
| 2026-05-04 04:26 | 50.03651 | 8.53946 | 341 ft | 3 kts | 160° |
| 2026-05-04 04:26 | 50.03602 | 8.53977 | 339 ft | 10 kts | 149° |
| 2026-05-04 04:26 | 50.03603 | 8.54087 | 339 ft | 13 kts | 71° |
| 2026-05-04 04:26 | 50.03641 | 8.54247 | 339 ft | 19 kts | 69° |
| 2026-05-04 04:27 | 50.03689 | 8.54446 | 340 ft | 20 kts | 70° |
| 2026-05-04 04:27 | 50.03737 | 8.54648 | 352 ft | 20 kts | 70° |
| 2026-05-04 04:27 | 50.03785 | 8.54849 | 350 ft | 20 kts | 69° |
| 2026-05-04 04:27 | 50.03834 | 8.55059 | 349 ft | 21 kts | 70° |
| 2026-05-04 04:28 | 50.03888 | 8.55280 | 353 ft | 23 kts | 69° |
| 2026-05-04 04:28 | 50.03944 | 8.55516 | 351 ft | 24 kts | 70° |
| 2026-05-04 04:28 | 50.04004 | 8.55766 | 351 ft | 25 kts | 70° |
| 2026-05-04 04:28 | 50.04066 | 8.56024 | 351 ft | 26 kts | 69° |
| 2026-05-04 04:29 | 50.04128 | 8.56285 | 355 ft | 26 kts | 70° |
| 2026-05-04 04:29 | 50.04191 | 8.56545 | 356 ft | 26 kts | 69° |
| 2026-05-04 04:29 | 50.04251 | 8.56801 | 360 ft | 25 kts | 69° |
| 2026-05-04 04:29 | 50.04311 | 8.57053 | 359 ft | 25 kts | 70° |
| 2026-05-04 04:30 | 50.04372 | 8.57308 | 366 ft | 26 kts | 69° |
| 2026-05-04 04:30 | 50.04426 | 8.57539 | 360 ft | 20 kts | 76° |
| 2026-05-04 04:30 | 50.04374 | 8.57668 | 369 ft | 13 kts | 155° |
| 2026-05-04 04:30 | 50.04279 | 8.57678 | 362 ft | 15 kts | 215° |
| 2026-05-04 04:31 | 50.04222 | 8.57477 | 366 ft | 43 kts | 249° |
| 2026-05-04 04:31 | 50.04026 | 8.56658 | 355 ft | 118 kts | 250° |
| 2026-05-04 04:31 | 50.03666 | 8.55159 | 500 ft | 166 kts | 248° |
| 2026-05-04 04:31 | 50.03252 | 8.53463 | 1085 ft | 169 kts | 250° |
| 2026-05-04 04:32 | 50.02881 | 8.51788 | 1189 ft | 159 kts | 251° |
| 2026-05-04 04:32 | 50.02330 | 8.50222 | 1510 ft | 175 kts | 225° |
| 2026-05-04 04:32 | 50.01229 | 8.49270 | 2112 ft | 194 kts | 201° |
| 2026-05-04 04:32 | 49.99856 | 8.48598 | 2593 ft | 215 kts | 198° |
| 2026-05-04 04:33 | 49.98437 | 8.47967 | 3577 ft | 208 kts | 198° |
| 2026-05-04 04:33 | 49.97058 | 8.47362 | 4542 ft | 204 kts | 198° |
| 2026-05-04 04:33 | 49.95704 | 8.46793 | 5298 ft | 210 kts | 198° |
| 2026-05-04 04:33 | 49.94270 | 8.46149 | 5892 ft | 219 kts | 200° |
| 2026-05-04 04:34 | 49.92785 | 8.45455 | 6551 ft | 224 kts | 201° |
| 2026-05-04 04:34 | 49.91439 | 8.44288 | 7193 ft | 223 kts | 226° |
| 2026-05-04 04:34 | 49.90539 | 8.42339 | 7828 ft | 223 kts | 239° |
| 2026-05-04 04:34 | 49.89722 | 8.40274 | 8455 ft | 226 kts | 239° |
| 2026-05-04 04:35 | 49.88945 | 8.38145 | 9045 ft | 229 kts | 246° |
| 2026-05-04 04:35 | 49.88632 | 8.35719 | 9659 ft | 233 kts | 268° |
| 2026-05-04 04:35 | 49.88742 | 8.33142 | 9974 ft | 249 kts | 272° |
| 2026-05-04 04:35 | 49.88894 | 8.30406 | 10338 ft | 259 kts | 273° |
| 2026-05-04 04:36 | 49.89129 | 8.27578 | 10742 ft | 278 kts | 281° |
| 2026-05-04 04:36 | 49.89962 | 8.24755 | 11234 ft | 299 kts | 300° |
| 2026-05-04 04:36 | 49.91204 | 8.22071 | 11872 ft | 312 kts | 303° |
| 2026-05-04 04:36 | 49.92529 | 8.19320 | 12584 ft | 324 kts | 303° |
| 2026-05-04 04:37 | 49.97920 | 8.12139 | 14755 ft | 361 kts | 323° |
| 2026-05-04 04:37 | 49.99330 | 8.10723 | 15230 ft | 367 kts | 323° |
| 2026-05-04 04:38 | 50.01488 | 8.08539 | 16053 ft | 372 kts | 322° |
| 2026-05-04 04:38 | 50.04383 | 8.05594 | 17185 ft | 377 kts | 322° |
| 2026-05-04 04:38 | 50.06586 | 8.03350 | 18064 ft | 379 kts | 322° |
| 2026-05-04 04:38 | 50.08082 | 8.01823 | 18626 ft | 381 kts | 322° |
| 2026-05-04 04:39 | 50.10278 | 7.99579 | 19405 ft | 383 kts | 322° |
| 2026-05-04 04:39 | 50.12516 | 7.97292 | 20214 ft | 385 kts | 322° |
| 2026-05-04 04:39 | 50.14760 | 7.95000 | 20999 ft | 387 kts | 322° |
| 2026-05-04 04:39 | 50.17018 | 7.92698 | 21691 ft | 389 kts | 322° |
| 2026-05-04 04:40 | 50.19294 | 7.90379 | 22347 ft | 392 kts | 322° |
| 2026-05-04 04:40 | 50.21588 | 7.88044 | 22994 ft | 395 kts | 322° |
| 2026-05-04 04:40 | 50.23900 | 7.85690 | 23649 ft | 398 kts | 322° |
| 2026-05-04 04:40 | 50.26219 | 7.83328 | 24236 ft | 399 kts | 322° |
| 2026-05-04 04:41 | 50.28549 | 7.80952 | 24818 ft | 401 kts | 322° |
| 2026-05-04 04:41 | 50.30864 | 7.78590 | 25410 ft | 402 kts | 322° |
| 2026-05-04 04:41 | 50.33211 | 7.76197 | 26003 ft | 405 kts | 322° |
| 2026-05-04 04:41 | 50.35576 | 7.73784 | 26537 ft | 407 kts | 322° |
| 2026-05-04 04:42 | 50.37943 | 7.71370 | 27078 ft | 402 kts | 322° |
| 2026-05-04 04:42 | 50.40267 | 7.69006 | 27912 ft | 395 kts | 321° |
| 2026-05-04 04:42 | 50.42569 | 7.66649 | 28435 ft | 397 kts | 321° |
| 2026-05-04 04:42 | 50.44893 | 7.64273 | 28884 ft | 400 kts | 321° |
| 2026-05-04 04:43 | 50.47249 | 7.61865 | 29293 ft | 405 kts | 321° |
| 2026-05-04 04:43 | 50.49633 | 7.59432 | 29652 ft | 410 kts | 321° |
| 2026-05-04 04:43 | 50.52033 | 7.56982 | 30081 ft | 412 kts | 321° |
| 2026-05-04 04:43 | 50.54445 | 7.54519 | 30482 ft | 414 kts | 321° |
| 2026-05-04 04:44 | 50.56869 | 7.52039 | 30864 ft | 416 kts | 321° |
| 2026-05-04 04:44 | 50.59270 | 7.49583 | 31221 ft | 417 kts | 321° |
| 2026-05-04 04:44 | 50.61706 | 7.47090 | 31594 ft | 418 kts | 321° |
| 2026-05-04 04:44 | 50.64151 | 7.44586 | 31966 ft | 419 kts | 320° |
| 2026-05-04 04:45 | 50.66589 | 7.42093 | 32465 ft | 416 kts | 320° |
| 2026-05-04 04:45 | 50.69005 | 7.39614 | 32880 ft | 415 kts | 320° |
| 2026-05-04 04:45 | 50.71429 | 7.37123 | 33245 ft | 415 kts | 320° |
| 2026-05-04 04:47 | 50.80472 | 7.15880 | 35045 ft | 389 kts | 291° |
| 2026-05-04 04:47 | 50.81687 | 7.12073 | 35288 ft | 387 kts | 291° |
| 2026-05-04 04:47 | 50.82899 | 7.08262 | 35564 ft | 386 kts | 291° |
| 2026-05-04 04:47 | 50.84098 | 7.04482 | 35853 ft | 386 kts | 290° |
| 2026-05-04 04:48 | 50.85301 | 7.00673 | 35991 ft | 391 kts | 290° |
| 2026-05-04 04:49 | 50.90353 | 6.84850 | 36042 ft | 411 kts | 291° |
| 2026-05-04 04:49 | 50.91654 | 6.80808 | 36006 ft | 412 kts | 291° |
| 2026-05-04 04:49 | 50.94232 | 6.72758 | 35963 ft | 411 kts | 291° |
| 2026-05-04 04:50 | 50.96813 | 6.64666 | 35969 ft | 411 kts | 291° |
| 2026-05-04 04:50 | 50.99390 | 6.56562 | 35956 ft | 411 kts | 290° |
| 2026-05-04 04:51 | 51.01967 | 6.48432 | 35961 ft | 412 kts | 290° |
| 2026-05-04 04:51 | 51.04540 | 6.40284 | 35967 ft | 412 kts | 290° |
| 2026-05-04 04:52 | 51.07105 | 6.32137 | 35964 ft | 412 kts | 290° |
| 2026-05-04 04:52 | 51.09664 | 6.23982 | 35962 ft | 412 kts | 290° |
| 2026-05-04 04:53 | 51.12220 | 6.15810 | 35979 ft | 413 kts | 290° |
| 2026-05-04 04:53 | 51.14420 | 6.07420 | 35983 ft | 407 kts | 280° |
| 2026-05-04 04:54 | 51.15861 | 5.98707 | 35963 ft | 406 kts | 279° |
| 2026-05-04 04:54 | 51.17270 | 5.90004 | 35968 ft | 406 kts | 278° |
| 2026-05-04 04:55 | 51.19083 | 5.81505 | 35995 ft | 417 kts | 293° |
| 2026-05-04 04:55 | 51.22047 | 5.73518 | 35951 ft | 417 kts | 295° |
| 2026-05-04 04:56 | 51.25046 | 5.65610 | 35942 ft | 416 kts | 295° |
| 2026-05-04 04:56 | 51.28036 | 5.57685 | 35948 ft | 416 kts | 295° |
| 2026-05-04 04:57 | 51.31017 | 5.49750 | 35965 ft | 417 kts | 295° |
| 2026-05-04 04:57 | 51.33997 | 5.41792 | 35942 ft | 417 kts | 295° |
| 2026-05-04 04:58 | 51.36950 | 5.33883 | 35941 ft | 416 kts | 295° |
| 2026-05-04 04:58 | 51.39896 | 5.25966 | 35955 ft | 417 kts | 295° |
| 2026-05-04 04:59 | 51.42852 | 5.17999 | 35942 ft | 416 kts | 295° |
| 2026-05-04 04:59 | 51.45802 | 5.10023 | 35946 ft | 416 kts | 295° |
| 2026-05-04 05:00 | 51.48736 | 5.02071 | 35933 ft | 412 kts | 295° |
| 2026-05-04 05:01 | 51.53118 | 4.90133 | 35946 ft | 413 kts | 295° |
| 2026-05-04 05:01 | 51.56032 | 4.82164 | 35937 ft | 413 kts | 294° |
| 2026-05-04 05:01 | 51.57171 | 4.77978 | 35971 ft | 405 kts | 280° |
| 2026-05-04 05:02 | 51.57731 | 4.73629 | 35976 ft | 403 kts | 275° |
| 2026-05-04 05:02 | 51.58691 | 4.64753 | 35942 ft | 402 kts | 275° |
| 2026-05-04 05:03 | 51.59620 | 4.55885 | 35941 ft | 402 kts | 275° |
| 2026-05-04 05:04 | 51.61461 | 4.38128 | 35938 ft | 402 kts | 275° |
| 2026-05-04 05:04 | 51.62371 | 4.29256 | 35938 ft | 402 kts | 275° |
| 2026-05-04 05:06 | 51.65941 | 3.93742 | 35936 ft | 402 kts | 274° |
| 2026-05-04 05:07 | 51.66819 | 3.84837 | 35933 ft | 403 kts | 274° |
| 2026-05-04 05:07 | 51.67689 | 3.75935 | 35932 ft | 404 kts | 274° |
| 2026-05-04 05:09 | 51.71548 | 3.35695 | 35924 ft | 405 kts | 274° |
| 2026-05-04 05:10 | 51.72393 | 3.26693 | 35939 ft | 406 kts | 274° |
| 2026-05-04 05:10 | 51.73135 | 3.17664 | 35699 ft | 406 kts | 266° |
| 2026-05-04 05:11 | 51.72877 | 3.13169 | 35157 ft | 400 kts | 259° |
| 2026-05-04 05:11 | 51.72512 | 3.08757 | 34664 ft | 394 kts | 259° |
| 2026-05-04 05:11 | 51.72150 | 3.04404 | 34178 ft | 388 kts | 259° |
| 2026-05-04 05:11 | 51.71791 | 3.00119 | 33652 ft | 382 kts | 259° |
| 2026-05-04 05:12 | 51.71437 | 2.95930 | 33101 ft | 380 kts | 258° |
| 2026-05-04 05:12 | 51.71070 | 2.91702 | 32563 ft | 382 kts | 258° |
| 2026-05-04 05:12 | 51.70699 | 2.87449 | 32058 ft | 385 kts | 257° |
| 2026-05-04 05:12 | 51.70323 | 2.83163 | 31534 ft | 387 kts | 257° |
| 2026-05-04 05:13 | 51.69947 | 2.78860 | 31016 ft | 388 kts | 256° |
| 2026-05-04 05:13 | 51.69571 | 2.74552 | 30504 ft | 388 kts | 256° |
| 2026-05-04 05:13 | 51.69194 | 2.70244 | 29995 ft | 388 kts | 255° |
| 2026-05-04 05:13 | 51.68813 | 2.65929 | 29401 ft | 390 kts | 256° |
| 2026-05-04 05:14 | 51.68421 | 2.61587 | 28818 ft | 393 kts | 256° |
| 2026-05-04 05:14 | 51.68030 | 2.57277 | 28244 ft | 393 kts | 256° |
| 2026-05-04 05:14 | 51.67636 | 2.52929 | 27673 ft | 393 kts | 257° |
| 2026-05-04 05:14 | 51.67231 | 2.48515 | 27123 ft | 397 kts | 257° |
| 2026-05-04 05:15 | 51.66831 | 2.44123 | 26603 ft | 396 kts | 257° |
| 2026-05-04 05:15 | 51.66429 | 2.39720 | 26112 ft | 394 kts | 257° |
| 2026-05-04 05:15 | 51.66029 | 2.35364 | 25612 ft | 392 kts | 258° |
| 2026-05-04 05:15 | 51.65628 | 2.31029 | 25135 ft | 391 kts | 258° |
| 2026-05-04 05:16 | 51.65227 | 2.26703 | 24645 ft | 390 kts | 258° |
| 2026-05-04 05:16 | 51.64831 | 2.22446 | 24182 ft | 389 kts | 259° |
| 2026-05-04 05:16 | 51.64429 | 2.18150 | 23724 ft | 387 kts | 259° |
| 2026-05-04 05:16 | 51.64027 | 2.13865 | 23222 ft | 386 kts | 259° |
| 2026-05-04 05:17 | 51.63626 | 2.09602 | 22697 ft | 384 kts | 259° |
| 2026-05-04 05:17 | 51.63233 | 2.05349 | 22176 ft | 383 kts | 260° |
| 2026-05-04 05:17 | 51.62844 | 2.01113 | 21667 ft | 381 kts | 259° |
| 2026-05-04 05:17 | 51.62454 | 1.96904 | 21176 ft | 380 kts | 260° |
| 2026-05-04 05:18 | 51.62062 | 1.92697 | 20723 ft | 379 kts | 259° |
| 2026-05-04 05:18 | 51.61673 | 1.88549 | 20270 ft | 379 kts | 260° |
| 2026-05-04 05:18 | 51.61280 | 1.84362 | 19853 ft | 378 kts | 259° |
| 2026-05-04 05:18 | 51.60534 | 1.80343 | 19404 ft | 375 kts | 241° |
| 2026-05-04 05:19 | 51.58911 | 1.77092 | 18994 ft | 373 kts | 224° |
| 2026-05-04 05:19 | 51.56963 | 1.74333 | 18623 ft | 373 kts | 221° |
| 2026-05-04 05:19 | 51.55028 | 1.71544 | 18239 ft | 373 kts | 224° |
| 2026-05-04 05:19 | 51.53204 | 1.68598 | 17803 ft | 371 kts | 226° |
| 2026-05-04 05:20 | 51.51439 | 1.65575 | 17358 ft | 369 kts | 227° |
| 2026-05-04 05:20 | 51.49726 | 1.62525 | 16923 ft | 366 kts | 231° |
| 2026-05-04 05:20 | 51.48460 | 1.59066 | 16486 ft | 365 kts | 246° |
| 2026-05-04 05:20 | 51.47556 | 1.55269 | 16083 ft | 363 kts | 249° |
| 2026-05-04 05:21 | 51.46687 | 1.51470 | 15688 ft | 361 kts | 249° |
| 2026-05-04 05:21 | 51.45815 | 1.47699 | 15289 ft | 360 kts | 249° |
| 2026-05-04 05:21 | 51.44943 | 1.43939 | 14895 ft | 358 kts | 248° |
| 2026-05-04 05:21 | 51.44065 | 1.40239 | 14685 ft | 354 kts | 245° |
| 2026-05-04 05:22 | 51.42739 | 1.36942 | 14508 ft | 353 kts | 226° |
| 2026-05-04 05:22 | 51.40849 | 1.34439 | 14364 ft | 353 kts | 217° |
| 2026-05-04 05:22 | 51.38873 | 1.32104 | 14241 ft | 353 kts | 216° |
| 2026-05-04 05:22 | 51.36893 | 1.29772 | 14097 ft | 352 kts | 216° |
| 2026-05-04 05:23 | 51.34921 | 1.27449 | 13958 ft | 351 kts | 216° |
| 2026-05-04 05:23 | 51.32959 | 1.25134 | 13974 ft | 351 kts | 217° |
| 2026-05-04 05:23 | 51.30996 | 1.22810 | 13973 ft | 352 kts | 217° |
| 2026-05-04 05:23 | 51.29024 | 1.20481 | 13968 ft | 352 kts | 217° |
| 2026-05-04 05:24 | 51.27078 | 1.18182 | 13963 ft | 352 kts | 217° |
| 2026-05-04 05:24 | 51.25103 | 1.15856 | 13971 ft | 352 kts | 217° |
| 2026-05-04 05:24 | 51.23130 | 1.13531 | 13978 ft | 352 kts | 217° |
| 2026-05-04 05:24 | 51.21186 | 1.11152 | 13924 ft | 353 kts | 222° |
| 2026-05-04 05:25 | 51.19712 | 1.08038 | 13667 ft | 353 kts | 243° |
| 2026-05-04 05:25 | 51.18871 | 1.04373 | 13433 ft | 352 kts | 251° |
| 2026-05-04 05:25 | 51.18385 | 1.01904 | 13274 ft | 351 kts | 251° |
| 2026-05-04 05:25 | 51.17650 | 0.98202 | 13033 ft | 350 kts | 251° |
| 2026-05-04 05:26 | 51.16675 | 0.93306 | 12729 ft | 349 kts | 251° |
| 2026-05-04 05:26 | 51.15946 | 0.89621 | 12486 ft | 348 kts | 251° |
| 2026-05-04 05:26 | 51.15464 | 0.87193 | 12323 ft | 342 kts | 251° |
| 2026-05-04 05:26 | 51.14765 | 0.83675 | 12069 ft | 324 kts | 251° |
| 2026-05-04 05:27 | 51.14102 | 0.80330 | 11823 ft | 309 kts | 251° |
| 2026-05-04 05:28 | 51.12191 | 0.58587 | 10327 ft | 283 kts | 275° |
| 2026-05-04 05:29 | 51.12468 | 0.55504 | 9967 ft | 280 kts | 278° |
| 2026-05-04 05:29 | 51.12779 | 0.52475 | 9579 ft | 275 kts | 277° |
| 2026-05-04 05:29 | 51.13068 | 0.49483 | 9192 ft | 271 kts | 277° |
| 2026-05-04 05:29 | 51.13337 | 0.46529 | 8817 ft | 268 kts | 276° |
| 2026-05-04 05:31 | 51.15854 | 0.26592 | 6137 ft | 260 kts | 281° |
| 2026-05-04 05:31 | 51.16237 | 0.23786 | 5729 ft | 259 kts | 281° |
| 2026-05-04 05:32 | 51.16614 | 0.20984 | 5324 ft | 258 kts | 281° |
| 2026-05-04 05:32 | 51.16983 | 0.18188 | 4926 ft | 257 kts | 281° |
| 2026-05-04 05:32 | 51.17344 | 0.15402 | 4518 ft | 256 kts | 281° |
| 2026-05-04 05:33 | 51.18188 | 0.09921 | 3701 ft | 255 kts | 289° |
| 2026-05-04 05:33 | 51.18411 | 0.07156 | 3209 ft | 256 kts | 262° |
| 2026-05-04 05:33 | 51.17980 | 0.04470 | 2912 ft | 240 kts | 253° |
| 2026-05-04 05:33 | 51.17628 | 0.02014 | 2658 ft | 221 kts | 261° |
| 2026-05-04 05:34 | 51.17385 | -0.00309 | 2396 ft | 206 kts | 259° |
| 2026-05-04 05:34 | 51.17080 | -0.02464 | 2094 ft | 192 kts | 258° |
| 2026-05-04 05:34 | 51.16793 | -0.04450 | 1862 ft | 174 kts | 259° |
| 2026-05-04 05:34 | 51.16558 | -0.06254 | 1622 ft | 163 kts | 260° |
| 2026-05-04 05:35 | 51.16321 | -0.08014 | 1392 ft | 160 kts | 259° |
| 2026-05-04 05:35 | 51.16087 | -0.09701 | 1165 ft | 150 kts | 259° |
| 2026-05-04 05:35 | 51.15874 | -0.11276 | 965 ft | 142 kts | 258° |
| 2026-05-04 05:35 | 51.15665 | -0.12812 | 788 ft | 142 kts | 257° |
| 2026-05-04 05:36 | 51.15456 | -0.14339 | 596 ft | 142 kts | 257° |
| 2026-05-04 05:36 | 51.15242 | -0.15865 | 401 ft | 141 kts | 256° |
| 2026-05-04 05:36 | 51.15044 | -0.17370 | 223 ft | 139 kts | 256° |
| 2026-05-04 05:36 | 51.14853 | -0.18751 | 210 ft | 111 kts | 257° |
| 2026-05-04 05:37 | 51.14736 | -0.19601 | 207 ft | 56 kts | 257° |
| 2026-05-04 05:37 | 51.14715 | -0.20091 | 210 ft | 36 kts | 281° |
| 2026-05-04 05:37 | 51.14762 | -0.20388 | 206 ft | 18 kts | 306° |
| 2026-05-04 05:38 | 51.14852 | -0.20069 | 202 ft | 21 kts | 77° |
| 2026-05-04 05:38 | 51.14884 | -0.19840 | 204 ft | 22 kts | 78° |
| 2026-05-04 05:38 | 51.14917 | -0.19603 | 207 ft | 23 kts | 77° |
| 2026-05-04 05:38 | 51.14953 | -0.19346 | 208 ft | 24 kts | 78° |
| 2026-05-04 05:39 | 51.14990 | -0.19071 | 207 ft | 27 kts | 78° |
| 2026-05-04 05:39 | 51.15069 | -0.18504 | 201 ft | 23 kts | 77° |
| 2026-05-04 05:39 | 51.15099 | -0.18281 | 201 ft | 18 kts | 77° |
| 2026-05-04 05:40 | 51.15272 | -0.18235 | 206 ft | 14 kts | 347° |
| 2026-05-04 05:40 | 51.15362 | -0.18266 | 206 ft | 13 kts | 348° |
| 2026-05-04 05:40 | 51.15451 | -0.18297 | 202 ft | 13 kts | 347° |
| 2026-05-04 05:41 | 51.15548 | -0.18331 | 202 ft | 15 kts | 347° |
| 2026-05-04 05:41 | 51.15646 | -0.18318 | 205 ft | 15 kts | 54° |
| 2026-05-04 05:41 | 51.15673 | -0.18146 | 204 ft | 17 kts | 77° |
| 2026-05-04 05:41 | 51.15699 | -0.17958 | 204 ft | 18 kts | 78° |
| 2026-05-04 05:42 | 51.15726 | -0.17757 | 205 ft | 19 kts | 77° |
| 2026-05-04 05:42 | 51.15756 | -0.17543 | 204 ft | 20 kts | 78° |
| 2026-05-04 05:42 | 51.15787 | -0.17322 | 202 ft | 20 kts | 77° |
| 2026-05-04 05:42 | 51.15809 | -0.17151 | 211 ft | 12 kts | 78° |
| 2026-05-04 05:43 | 51.15854 | -0.17077 | 210 ft | 9 kts | 18° |
| 2026-05-04 05:43 | 51.15911 | -0.17036 | 206 ft | 10 kts | 34° |
| 2026-05-04 05:43 | 51.15954 | -0.17008 | 202 ft | 3 kts | 357° |
| 2026-05-04 05:45 | 51.16024 | -0.17052 | 207 ft | 0 kts | 333° |